Time;durP1;ratioP1;P1;durP2;ratioP2;P2;SDS_P1;SDS_P2;PMS_P1;PMS_P2;Temp;Humidity;BMP_temperature;BMP_pressure;BME280_temperature;BME280_humidity;BME280_pressure;Samples;Min_cycle;Max_cycle;Signal;HPM_P1;HPM_P2
2023/05/29 00:00:33;;;;;;;17.17;4.50;;;12.00;99.90;;;;;;5053429;28;20054;-70
2023/05/29 00:02:58;;;;;;;19.17;4.63;;;12.00;99.90;;;;;;5065547;28;20538;-70
2023/05/29 00:05:25;;;;;;;16.65;4.63;;;11.90;99.90;;;;;;5057399;28;20045;-70
2023/05/29 00:07:50;;;;;;;21.83;4.65;;;11.90;99.90;;;;;;5050114;28;20048;-69
2023/05/29 00:10:16;;;;;;;21.92;4.78;;;11.90;99.90;;;;;;5044956;28;20052;-70
2023/05/29 00:12:42;;;;;;;17.75;4.35;;;11.80;99.90;;;;;;5041278;28;20103;-71
2023/05/29 00:15:12;;;;;;;17.90;4.43;;;11.80;99.90;;;;;;5054538;28;20600;-70
2023/05/29 00:17:39;;;;;;;20.67;5.00;;;11.80;99.90;;;;;;5069607;28;20095;-70
2023/05/29 00:20:09;;;;;;;23.60;5.55;;;11.80;99.90;;;;;;5066706;28;20088;-70
2023/05/29 00:22:37;;;;;;;17.33;4.50;;;11.70;99.90;;;;;;5055583;28;20072;-70
2023/05/29 00:25:05;;;;;;;23.60;5.90;;;11.70;99.90;;;;;;5056265;28;20490;-70
2023/05/29 00:27:30;;;;;;;21.65;5.18;;;11.70;99.90;;;;;;5043813;28;20032;-70
2023/05/29 00:29:56;;;;;;;18.52;4.50;;;11.60;99.90;;;;;;5080697;28;20410;-71
2023/05/29 00:32:22;;;;;;;20.25;4.97;;;11.60;99.90;;;;;;5042436;28;20053;-70
2023/05/29 00:34:47;;;;;;;21.05;5.22;;;11.60;99.90;;;;;;5049224;28;20090;-70
2023/05/29 00:37:13;;;;;;;19.20;4.63;;;11.60;99.90;;;;;;5069651;28;20481;-70
2023/05/29 00:39:39;;;;;;;18.40;5.10;;;11.50;99.90;;;;;;5051090;28;20452;-70
2023/05/29 00:42:05;;;;;;;20.85;4.90;;;11.50;99.90;;;;;;5058482;28;20046;-70
2023/05/29 00:44:30;;;;;;;22.58;5.80;;;11.50;99.90;;;;;;5057677;28;20044;-70
2023/05/29 00:46:57;;;;;;;18.00;4.10;;;11.50;99.90;;;;;;5055049;28;20090;-70
2023/05/29 00:49:23;;;;;;;17.27;4.72;;;11.50;99.90;;;;;;5045423;28;20586;-69
2023/05/29 00:51:51;;;;;;;21.23;5.32;;;11.40;99.90;;;;;;5050234;28;20044;-70
2023/05/29 00:54:21;;;;;;;23.73;4.15;;;11.40;99.90;;;;;;5052051;28;20123;-70
2023/05/29 00:56:47;;;;;;;20.58;4.80;;;11.40;99.90;;;;;;5055305;28;20056;-70
2023/05/29 00:59:14;;;;;;;19.38;5.15;;;11.30;99.90;;;;;;5064101;28;20050;-71
2023/05/29 01:01:40;;;;;;;21.30;4.88;;;11.30;99.90;;;;;;5046240;28;20102;-71
2023/05/29 01:04:06;;;;;;;15.73;4.25;;;11.30;99.90;;;;;;5058468;28;20049;-70
2023/05/29 01:06:36;;;;;;;21.65;4.90;;;11.30;99.90;;;;;;5048450;28;20082;-69
2023/05/29 01:09:03;;;;;;;17.33;3.95;;;11.30;99.90;;;;;;5046120;28;20048;-70
2023/05/29 01:11:40;;;;;;;16.88;3.97;;;11.20;99.90;;;;;;5042224;28;20059;-71
2023/05/29 01:14:11;;;;;;;19.60;4.63;;;11.20;99.90;;;;;;5048508;28;20044;-70
2023/05/29 01:16:48;;;;;;;20.50;5.25;;;11.20;99.90;;;;;;5063028;28;20104;-70
2023/05/29 01:19:45;;;;;;;18.63;5.03;;;11.10;99.90;;;;;;5045900;28;20049;-69
2023/05/29 01:22:30;;;;;;;;;;;11.10;99.90;;;;;;5055216;28;20052;-72
2023/05/29 01:25:07;;;;;;;15.35;3.20;;;11.10;99.90;;;;;;5050203;28;19928;-70
2023/05/29 01:27:35;;;;;;;15.70;3.55;;;11.10;99.90;;;;;;5047437;28;20044;-70
2023/05/29 01:30:02;;;;;;;19.15;4.57;;;11.00;99.90;;;;;;5055004;28;20084;-70
2023/05/29 01:32:29;;;;;;;20.75;5.28;;;11.00;99.90;;;;;;5056882;28;20067;-70
2023/05/29 01:34:55;;;;;;;20.92;4.70;;;11.00;99.90;;;;;;5056605;28;20039;-70
2023/05/29 01:37:21;;;;;;;20.77;5.22;;;11.00;99.90;;;;;;5046849;28;20410;-70
2023/05/29 01:39:46;;;;;;;18.05;4.18;;;11.00;99.90;;;;;;5052030;28;20479;-69
2023/05/29 01:42:13;;;;;;;18.52;4.20;;;11.00;99.90;;;;;;5041566;28;20144;-70
2023/05/29 01:44:40;;;;;;;15.23;4.32;;;10.90;99.90;;;;;;5045126;28;20052;-70
2023/05/29 01:47:06;;;;;;;17.35;4.80;;;10.90;99.90;;;;;;5049555;28;20131;-71
2023/05/29 01:49:32;;;;;;;21.55;3.75;;;10.90;99.90;;;;;;5054993;28;20048;-70
2023/05/29 01:51:58;;;;;;;18.35;4.18;;;10.90;99.90;;;;;;5057441;28;20414;-71
2023/05/29 01:54:24;;;;;;;11.27;2.85;;;10.90;99.90;;;;;;5047540;28;20458;-70
2023/05/29 01:56:50;;;;;;;18.83;4.68;;;10.80;99.90;;;;;;5042057;28;20049;-70
2023/05/29 01:59:17;;;;;;;15.57;2.97;;;10.80;99.90;;;;;;5045356;28;20052;-69
2023/05/29 02:01:42;;;;;;;17.67;5.18;;;10.80;99.90;;;;;;5038626;28;20094;-69
2023/05/29 02:04:08;;;;;;;18.23;4.93;;;10.80;99.90;;;;;;5060943;28;20452;-70
2023/05/29 02:06:34;;;;;;;15.52;3.88;;;10.70;99.90;;;;;;5042506;28;20091;-71
2023/05/29 02:09:00;;;;;;;17.45;4.68;;;10.70;99.90;;;;;;5039007;28;20092;-71
2023/05/29 02:11:28;;;;;;;19.00;4.28;;;10.70;99.90;;;;;;5052138;28;20036;-69
2023/05/29 02:13:54;;;;;;;15.30;4.22;;;10.70;99.90;;;;;;5049642;28;20044;-69
2023/05/29 02:16:20;;;;;;;14.15;3.42;;;10.70;99.90;;;;;;5038516;28;20059;-70
2023/05/29 02:18:46;;;;;;;16.77;4.78;;;10.70;99.90;;;;;;5042054;28;20086;-69
2023/05/29 02:21:12;;;;;;;16.63;3.25;;;10.70;99.90;;;;;;5048248;28;20040;-70
2023/05/29 02:23:38;;;;;;;16.55;4.38;;;10.70;99.90;;;;;;5044422;28;20051;-69
2023/05/29 02:26:04;;;;;;;16.42;4.18;;;10.70;99.90;;;;;;5069827;28;20044;-69
2023/05/29 02:28:30;;;;;;;16.70;3.78;;;10.60;99.90;;;;;;5067970;28;20129;-70
2023/05/29 02:30:56;;;;;;;19.83;3.78;;;10.60;99.90;;;;;;5038906;28;20094;-69
2023/05/29 02:33:21;;;;;;;17.15;3.90;;;10.60;99.90;;;;;;5073468;28;20060;-69
2023/05/29 02:35:47;;;;;;;18.90;3.63;;;10.50;99.90;;;;;;5049861;28;20037;-70
2023/05/29 02:38:13;;;;;;;20.52;4.43;;;10.60;99.90;;;;;;5058031;28;20051;-70
2023/05/29 02:40:39;;;;;;;17.83;3.60;;;10.50;99.90;;;;;;5042692;28;20060;-70
2023/05/29 02:43:06;;;;;;;18.40;3.25;;;10.40;99.90;;;;;;5053744;28;20040;-69
2023/05/29 02:45:31;;;;;;;20.83;4.60;;;10.40;99.90;;;;;;5044692;28;20411;-70
2023/05/29 02:47:57;;;;;;;15.57;3.30;;;10.40;99.90;;;;;;5037102;28;20049;-70
2023/05/29 02:50:23;;;;;;;17.55;4.20;;;10.40;99.90;;;;;;5041571;28;20044;-70
2023/05/29 02:52:48;;;;;;;13.95;2.90;;;10.40;99.90;;;;;;5059034;28;20569;-70
2023/05/29 02:55:15;;;;;;;17.23;4.20;;;10.40;99.90;;;;;;5041322;28;20921;-71
2023/05/29 02:57:40;;;;;;;17.00;4.55;;;10.40;99.90;;;;;;5046122;28;20665;-71
2023/05/29 03:00:07;;;;;;;15.77;4.00;;;10.40;99.90;;;;;;5051910;28;20051;-72
2023/05/29 03:02:34;;;;;;;18.13;3.25;;;10.40;99.90;;;;;;5050733;28;20044;-70
2023/05/29 03:05:00;;;;;;;16.67;4.45;;;10.40;99.90;;;;;;5051040;28;20081;-70
2023/05/29 03:07:26;;;;;;;16.38;3.47;;;10.30;99.90;;;;;;5060643;28;20043;-70
2023/05/29 03:09:52;;;;;;;19.45;4.10;;;10.30;99.90;;;;;;5049389;28;20056;-70
2023/05/29 03:12:18;;;;;;;18.52;3.58;;;10.30;99.90;;;;;;5054721;28;20040;-70
2023/05/29 03:14:45;;;;;;;14.85;3.25;;;10.30;99.90;;;;;;5061529;28;20533;-70
2023/05/29 03:17:10;;;;;;;15.98;3.90;;;10.30;99.90;;;;;;5051638;28;20048;-70
2023/05/29 03:19:37;;;;;;;20.23;4.50;;;10.30;99.90;;;;;;5056344;28;20052;-70
2023/05/29 03:22:03;;;;;;;22.40;3.95;;;10.30;99.90;;;;;;5062394;28;20054;-70
2023/05/29 03:24:29;;;;;;;19.38;4.90;;;10.20;99.90;;;;;;5059178;28;20048;-69
2023/05/29 03:26:55;;;;;;;20.75;4.30;;;10.20;99.90;;;;;;5041865;28;20130;-69
2023/05/29 03:29:21;;;;;;;18.45;5.00;;;10.30;99.90;;;;;;5046028;28;20052;-70
2023/05/29 03:31:47;;;;;;;19.83;3.67;;;10.20;99.90;;;;;;5059933;28;20044;-70
2023/05/29 03:34:13;;;;;;;25.23;5.10;;;10.20;99.90;;;;;;5046611;28;20060;-70
2023/05/29 03:36:39;;;;;;;20.70;3.65;;;10.20;99.90;;;;;;5064885;28;20059;-72
2023/05/29 03:39:07;;;;;;;15.98;3.50;;;10.20;99.90;;;;;;5052844;28;20057;-70
2023/05/29 03:41:33;;;;;;;15.48;3.63;;;10.20;99.90;;;;;;5052476;28;20043;-71
2023/05/29 03:43:58;;;;;;;19.27;4.30;;;10.20;99.90;;;;;;5050586;28;20052;-70
2023/05/29 03:46:24;;;;;;;23.58;5.18;;;10.20;99.90;;;;;;5045848;28;20053;-70
2023/05/29 03:48:50;;;;;;;18.17;3.20;;;10.20;99.90;;;;;;5056968;28;20487;-70
2023/05/29 03:51:16;;;;;;;21.50;5.13;;;10.20;99.90;;;;;;5049587;28;20045;-69
2023/05/29 03:53:41;;;;;;;17.20;3.90;;;10.20;99.90;;;;;;5061895;28;20089;-70
2023/05/29 03:56:07;;;;;;;19.02;3.75;;;10.10;99.90;;;;;;5043997;28;20124;-70
2023/05/29 03:58:33;;;;;;;18.15;4.82;;;10.10;99.90;;;;;;5051009;28;21920;-70
2023/05/29 04:00:58;;;;;;;18.50;3.38;;;10.10;99.90;;;;;;5053308;28;20045;-71
2023/05/29 04:03:24;;;;;;;19.05;3.42;;;10.10;99.90;;;;;;5050234;28;20558;-69
2023/05/29 04:05:49;;;;;;;14.90;4.78;;;10.20;99.90;;;;;;5060282;28;21606;-69
2023/05/29 04:08:15;;;;;;;17.38;3.75;;;10.20;99.90;;;;;;5054786;28;20048;-70
2023/05/29 04:10:41;;;;;;;18.02;4.50;;;10.10;99.90;;;;;;5043013;28;20526;-71
2023/05/29 04:13:07;;;;;;;13.00;2.92;;;10.20;99.90;;;;;;5050832;28;20060;-70
2023/05/29 04:15:35;;;;;;;18.58;4.47;;;10.10;99.90;;;;;;5063248;28;20445;-69
2023/05/29 04:18:01;;;;;;;19.98;4.47;;;10.20;99.90;;;;;;5056328;28;21707;-71
2023/05/29 04:20:27;;;;;;;13.95;3.00;;;10.20;99.90;;;;;;5060109;28;21278;-71
2023/05/29 04:22:52;;;;;;;16.80;4.50;;;10.20;99.90;;;;;;5052682;28;20078;-71
2023/05/29 04:25:18;;;;;;;14.52;3.40;;;10.20;99.90;;;;;;5044829;28;20909;-70
2023/05/29 04:27:48;;;;;;;17.48;4.03;;;10.20;99.90;;;;;;5045378;28;20182;-71
2023/05/29 04:30:16;;;;;;;21.27;4.68;;;10.20;99.90;;;;;;5060702;28;20059;-69
2023/05/29 04:32:42;;;;;;;21.95;4.18;;;10.20;99.90;;;;;;5048797;28;20538;-70
2023/05/29 04:35:09;;;;;;;22.95;4.75;;;10.30;99.90;;;;;;5052222;28;20449;-70
2023/05/29 04:37:38;;;;;;;13.38;3.10;;;10.30;99.90;;;;;;5048941;28;20045;-69
2023/05/29 04:40:09;;;;;;;15.88;4.15;;;10.30;99.90;;;;;;5072699;28;20079;-70
2023/05/29 04:42:39;;;;;;;15.52;3.45;;;10.40;99.90;;;;;;5045608;28;20995;-70
2023/05/29 04:45:05;;;;;;;18.45;3.50;;;10.40;99.90;;;;;;5046044;28;20573;-70
2023/05/29 04:47:32;;;;;;;21.85;4.93;;;10.40;99.90;;;;;;5045508;28;20048;-70
2023/05/29 04:50:01;;;;;;;16.40;3.78;;;10.40;99.90;;;;;;5050184;28;20049;-70
2023/05/29 04:52:27;;;;;;;19.15;3.63;;;10.50;99.90;;;;;;5052577;28;20087;-70
2023/05/29 04:54:54;;;;;;;17.98;3.83;;;10.50;99.90;;;;;;5045056;28;20551;-70
2023/05/29 04:57:20;;;;;;;21.27;3.80;;;10.60;99.90;;;;;;5046683;28;20040;-69
2023/05/29 04:59:45;;;;;;;20.02;3.60;;;10.60;99.90;;;;;;5054624;28;20059;-70
2023/05/29 05:02:11;;;;;;;17.00;4.72;;;10.60;99.90;;;;;;5043117;28;20040;-70
2023/05/29 05:04:37;;;;;;;12.95;3.40;;;10.60;99.90;;;;;;5044445;28;20077;-70
2023/05/29 05:07:08;;;;;;;16.05;4.15;;;10.70;99.90;;;;;;5049285;28;20220;-70
2023/05/29 05:09:33;;;;;;;15.57;3.35;;;10.80;99.90;;;;;;5056968;28;20041;-70
2023/05/29 05:11:59;;;;;;;20.67;5.53;;;10.80;99.90;;;;;;5069741;28;20059;-69
2023/05/29 05:14:25;;;;;;;21.88;4.95;;;10.90;99.90;;;;;;5060673;28;20782;-69
2023/05/29 05:16:50;;;;;;;18.38;4.70;;;10.90;99.90;;;;;;5051534;28;20771;-69
2023/05/29 05:19:16;;;;;;;16.38;3.80;;;11.00;99.90;;;;;;5044457;28;20055;-70
2023/05/29 05:21:42;;;;;;;17.85;3.65;;;11.00;99.90;;;;;;5051859;28;20040;-69
2023/05/29 05:24:07;;;;;;;17.42;3.45;;;11.10;99.90;;;;;;5049831;28;20036;-70
2023/05/29 05:26:33;;;;;;;17.02;3.80;;;11.10;99.90;;;;;;5049830;28;20048;-70
2023/05/29 05:29:02;;;;;;;21.08;4.65;;;11.10;99.90;;;;;;5066369;28;20072;-69
2023/05/29 05:31:28;;;;;;;19.23;4.20;;;11.20;99.90;;;;;;5048009;28;20052;-70
2023/05/29 05:33:53;;;;;;;15.70;3.83;;;11.30;99.90;;;;;;5045539;28;20119;-69
2023/05/29 05:36:20;;;;;;;16.42;3.65;;;11.30;99.90;;;;;;5037098;28;20052;-69
2023/05/29 05:38:45;;;;;;;17.90;3.45;;;11.30;99.90;;;;;;5051694;28;20135;-69
2023/05/29 05:41:11;;;;;;;19.80;4.68;;;11.40;99.90;;;;;;5053475;28;20044;-69
2023/05/29 05:43:37;;;;;;;17.13;4.10;;;11.40;99.90;;;;;;5045055;28;20040;-67
2023/05/29 05:46:02;;;;;;;18.98;4.10;;;11.50;99.90;;;;;;5049678;28;20089;-70
2023/05/29 05:48:28;;;;;;;16.42;4.32;;;11.60;99.90;;;;;;5040309;28;20045;-70
2023/05/29 05:50:54;;;;;;;16.20;4.38;;;11.60;99.90;;;;;;5050633;28;20055;-70
2023/05/29 05:53:20;;;;;;;16.23;3.88;;;11.70;99.90;;;;;;5053256;28;20044;-70
2023/05/29 05:55:46;;;;;;;19.03;4.13;;;11.70;99.90;;;;;;5057731;28;20048;-70
2023/05/29 05:58:12;;;;;;;17.02;4.05;;;11.70;99.90;;;;;;5063994;28;20036;-70
2023/05/29 06:00:39;;;;;;;17.02;4.38;;;11.80;99.90;;;;;;5068170;28;20055;-70
2023/05/29 06:03:05;;;;;;;16.38;3.80;;;11.80;99.90;;;;;;5062672;28;20052;-71
2023/05/29 06:05:31;;;;;;;16.40;4.30;;;11.90;99.90;;;;;;5041684;28;20055;-70
2023/05/29 06:07:57;;;;;;;17.60;4.50;;;11.90;99.90;;;;;;5056218;28;20056;-71
2023/05/29 06:10:22;;;;;;;17.45;4.18;;;12.00;99.90;;;;;;5062491;28;20175;-71
2023/05/29 06:12:48;;;;;;;16.25;4.50;;;12.00;99.90;;;;;;5063129;28;20155;-69
2023/05/29 06:15:14;;;;;;;15.68;4.63;;;12.00;99.90;;;;;;5059093;28;20113;-70
2023/05/29 06:17:40;;;;;;;20.58;4.47;;;12.00;99.90;;;;;;5066129;28;20554;-71
2023/05/29 06:20:10;;;;;;;20.55;4.53;;;12.10;99.90;;;;;;5060603;28;20052;-70
2023/05/29 06:22:39;;;;;;;16.35;3.92;;;12.20;99.90;;;;;;5059901;28;20514;-70
2023/05/29 06:25:05;;;;;;;15.82;3.72;;;12.20;99.90;;;;;;5060250;28;20214;-70
2023/05/29 06:27:30;;;;;;;22.52;4.93;;;12.30;99.90;;;;;;5059755;28;20491;-70
2023/05/29 06:29:56;;;;;;;18.20;4.63;;;12.30;99.90;;;;;;5057933;28;20503;-69
2023/05/29 06:32:22;;;;;;;19.13;4.53;;;12.30;99.90;;;;;;5049603;28;20052;-70
2023/05/29 06:34:48;;;;;;;17.13;4.40;;;12.40;99.90;;;;;;5065470;28;20062;-70
2023/05/29 06:37:13;;;;;;;18.23;4.60;;;12.40;99.90;;;;;;5059045;28;20051;-71
2023/05/29 06:39:41;;;;;;;12.95;4.00;;;12.40;99.90;;;;;;5058197;28;20078;-69
2023/05/29 06:42:08;;;;;;;15.32;4.13;;;12.50;99.90;;;;;;5062970;28;21152;-71
2023/05/29 06:44:34;;;;;;;20.45;4.32;;;12.60;99.90;;;;;;5051704;28;20049;-69
2023/05/29 06:46:59;;;;;;;19.33;4.40;;;12.60;99.90;;;;;;5048797;28;20050;-70
2023/05/29 06:49:25;;;;;;;23.35;5.13;;;12.70;99.90;;;;;;5060580;28;20151;-70
2023/05/29 06:51:51;;;;;;;18.58;4.80;;;12.70;99.90;;;;;;5055425;28;20063;-71
2023/05/29 06:54:17;;;;;;;15.93;3.83;;;12.80;99.90;;;;;;5051819;28;20087;-71
2023/05/29 06:56:42;;;;;;;20.63;4.85;;;12.90;99.90;;;;;;5045295;28;20044;-71
2023/05/29 06:59:08;;;;;;;21.70;5.05;;;12.90;99.90;;;;;;5067056;28;20076;-71
2023/05/29 07:01:34;;;;;;;15.48;4.18;;;13.00;99.90;;;;;;5059213;28;20044;-71
2023/05/29 07:04:00;;;;;;;19.65;3.90;;;13.00;99.90;;;;;;5051722;28;20085;-69
2023/05/29 07:06:25;;;;;;;18.27;4.50;;;13.10;99.90;;;;;;5057274;28;20056;-70
2023/05/29 07:08:51;;;;;;;16.90;4.85;;;13.10;99.90;;;;;;5044348;28;20508;-71
2023/05/29 07:11:17;;;;;;;14.48;3.95;;;13.20;99.90;;;;;;5046883;28;20561;-70
2023/05/29 07:13:42;;;;;;;14.80;3.92;;;13.20;99.90;;;;;;5040377;28;20057;-71
2023/05/29 07:16:08;;;;;;;16.83;4.55;;;13.30;99.90;;;;;;5033664;28;20084;-70
2023/05/29 07:18:34;;;;;;;18.60;4.45;;;13.30;99.90;;;;;;5034500;28;20045;-70
2023/05/29 07:21:00;;;;;;;14.63;4.13;;;13.30;99.90;;;;;;5047336;28;20111;-70
2023/05/29 07:23:26;;;;;;;21.73;4.63;;;13.30;99.90;;;;;;5042897;28;20059;-70
2023/05/29 07:25:51;;;;;;;15.45;4.63;;;13.30;99.90;;;;;;5048046;28;20347;-73
2023/05/29 07:28:17;;;;;;;16.73;4.85;;;13.30;99.90;;;;;;5050534;28;20036;-72
2023/05/29 07:30:43;;;;;;;16.15;3.97;;;13.40;99.90;;;;;;5045936;28;20094;-73
2023/05/29 07:33:08;;;;;;;16.45;4.40;;;13.50;99.90;;;;;;5050797;28;20141;-71
2023/05/29 07:35:34;;;;;;;15.43;4.43;;;13.50;99.90;;;;;;5036767;28;20736;-72
2023/05/29 07:38:00;;;;;;;17.17;4.63;;;13.50;99.90;;;;;;5033061;28;20524;-71
2023/05/29 07:40:26;;;;;;;16.63;4.50;;;13.50;99.90;;;;;;5053783;28;20044;-72
2023/05/29 07:42:52;;;;;;;14.38;4.20;;;13.50;99.90;;;;;;5046516;28;20845;-72
2023/05/29 07:45:17;;;;;;;21.20;5.20;;;13.60;99.90;;;;;;5050852;28;20041;-71
2023/05/29 07:47:43;;;;;;;15.77;4.32;;;13.70;99.90;;;;;;5036135;28;20137;-69
2023/05/29 07:50:10;;;;;;;18.33;4.45;;;13.80;99.90;;;;;;5065936;28;20036;-71
2023/05/29 07:52:36;;;;;;;17.73;4.20;;;13.90;99.90;;;;;;5065882;28;20550;-71
2023/05/29 07:55:01;;;;;;;20.98;4.40;;;13.90;99.90;;;;;;5035841;28;20098;-71
2023/05/29 07:57:28;;;;;;;16.77;4.32;;;14.00;99.90;;;;;;5037245;28;20079;-71
2023/05/29 07:59:53;;;;;;;18.67;5.20;;;14.00;99.90;;;;;;5048599;28;20545;-71
2023/05/29 08:02:20;;;;;;;17.17;5.32;;;14.00;99.90;;;;;;5055324;28;20056;-71
2023/05/29 08:04:46;;;;;;;19.38;4.90;;;14.00;99.90;;;;;;5035649;28;20577;-72
2023/05/29 08:07:12;;;;;;;14.32;4.10;;;13.90;99.90;;;;;;5052444;28;20053;-73
2023/05/29 08:09:38;;;;;;;16.67;4.32;;;14.00;99.90;;;;;;5051392;28;20498;-75
2023/05/29 08:12:05;;;;;;;18.80;4.78;;;14.00;99.90;;;;;;5056284;28;21118;-72
2023/05/29 08:14:31;;;;;;;20.42;5.28;;;13.90;99.90;;;;;;5040769;28;20049;-72
2023/05/29 08:16:57;;;;;;;19.55;4.90;;;14.00;99.90;;;;;;5055875;28;20060;-69
2023/05/29 08:19:23;;;;;;;17.17;4.97;;;14.10;99.90;;;;;;5052136;28;20113;-72
2023/05/29 08:21:52;;;;;;;17.05;5.05;;;14.20;99.90;;;;;;5049161;28;20055;-72
2023/05/29 08:24:18;;;;;;;16.67;4.25;;;14.30;99.90;;;;;;5066109;28;20128;-74
2023/05/29 08:26:43;;;;;;;16.27;4.43;;;14.40;99.90;;;;;;5045901;28;20052;-72
2023/05/29 08:29:10;;;;;;;20.73;4.68;;;14.40;99.90;;;;;;5067229;28;20040;-72
2023/05/29 08:31:37;;;;;;;20.80;4.80;;;14.40;99.90;;;;;;5056416;28;20048;-74
2023/05/29 08:34:06;;;;;;;16.73;4.47;;;14.50;99.90;;;;;;5046384;28;20466;-73
2023/05/29 08:36:32;;;;;;;18.58;4.40;;;14.50;99.90;;;;;;5062732;28;20061;-71
2023/05/29 08:38:58;;;;;;;16.13;4.57;;;14.60;99.90;;;;;;5056419;28;20044;-70
2023/05/29 08:41:35;;;;;;;19.52;4.47;;;14.60;99.90;;;;;;5043661;28;20049;-71
2023/05/29 08:44:05;;;;;;;18.90;4.70;;;14.60;99.90;;;;;;5056691;28;20068;-72
2023/05/29 08:46:32;;;;;;;14.27;4.03;;;14.60;99.90;;;;;;5047420;28;20045;-73
2023/05/29 08:49:00;;;;;;;18.60;4.85;;;14.60;99.90;;;;;;5035337;28;20045;-71
2023/05/29 08:51:31;;;;;;;18.58;4.40;;;14.70;99.90;;;;;;5038729;28;20044;-73
2023/05/29 08:53:57;;;;;;;14.90;4.03;;;14.80;99.90;;;;;;5035941;28;20053;-72
2023/05/29 08:56:23;;;;;;;16.98;4.55;;;14.80;99.90;;;;;;5059911;28;20568;-72
2023/05/29 08:58:50;;;;;;;16.05;3.78;;;14.80;99.90;;;;;;5061540;28;20040;-69
2023/05/29 09:01:17;;;;;;;16.27;4.65;;;14.90;99.90;;;;;;5051605;28;20547;-70
2023/05/29 09:03:43;;;;;;;19.33;4.70;;;14.90;99.90;;;;;;5070558;28;20498;-69
2023/05/29 09:06:09;;;;;;;15.30;4.05;;;15.00;99.90;;;;;;5048041;28;20093;-69
2023/05/29 09:08:38;;;;;;;18.73;4.45;;;15.10;99.90;;;;;;5046972;28;20043;-69
2023/05/29 09:11:04;;;;;;;15.57;4.30;;;15.20;99.90;;;;;;5069982;28;20052;-68
2023/05/29 09:13:31;;;;;;;15.48;4.07;;;15.20;99.80;;;;;;5054228;28;20117;-69
2023/05/29 09:16:02;;;;;;;15.88;4.45;;;15.20;99.30;;;;;;5057984;28;20997;-70
2023/05/29 09:18:31;;;;;;;15.20;4.25;;;15.20;99.50;;;;;;5046730;28;20080;-73
2023/05/29 09:20:57;;;;;;;18.55;4.22;;;15.30;98.90;;;;;;5049750;28;20498;-74
2023/05/29 09:23:25;;;;;;;16.60;4.97;;;15.30;99.00;;;;;;5036026;28;20396;-71
2023/05/29 09:25:54;;;;;;;15.68;4.28;;;15.40;98.90;;;;;;5051060;28;20172;-71
2023/05/29 09:28:23;;;;;;;17.08;3.88;;;15.40;98.90;;;;;;5057860;28;20060;-71
2023/05/29 09:30:49;;;;;;;14.30;3.92;;;15.40;99.00;;;;;;5045533;28;20051;-71
2023/05/29 09:33:16;;;;;;;17.73;4.47;;;15.50;98.40;;;;;;5057091;28;20415;-71
2023/05/29 09:35:44;;;;;;;15.00;4.10;;;15.60;98.10;;;;;;5047673;28;20098;-70
2023/05/29 09:38:11;;;;;;;17.65;4.55;;;15.70;98.50;;;;;;5044878;28;20055;-70
2023/05/29 09:40:38;;;;;;;15.60;4.60;;;15.70;98.50;;;;;;5045715;28;20571;-71
2023/05/29 09:43:11;;;;;;;16.00;4.90;;;15.70;98.00;;;;;;5043282;28;20053;-70
2023/05/29 09:45:39;;;;;;;20.48;4.30;;;15.80;98.40;;;;;;5037723;28;20322;-73
2023/05/29 09:48:07;;;;;;;17.95;4.25;;;15.90;98.20;;;;;;5046810;28;20049;-70
2023/05/29 09:50:34;;;;;;;14.00;3.70;;;15.90;97.10;;;;;;5048802;28;20097;-69
2023/05/29 09:53:01;;;;;;;14.18;3.80;;;15.90;97.30;;;;;;5046444;28;20048;-71
2023/05/29 09:55:28;;;;;;;18.05;4.78;;;15.90;97.70;;;;;;5052641;28;20055;-70
2023/05/29 09:57:54;;;;;;;18.70;4.80;;;16.00;97.20;;;;;;5040269;28;20052;-74
2023/05/29 10:00:21;;;;;;;18.98;4.80;;;16.00;97.20;;;;;;5039599;28;20138;-74
2023/05/29 10:02:48;;;;;;;20.37;4.97;;;16.00;97.40;;;;;;5043175;28;20101;-73
2023/05/29 10:05:15;;;;;;;17.15;4.28;;;16.00;97.90;;;;;;5039514;28;20296;-72
2023/05/29 10:07:48;;;;;;;17.63;4.10;;;16.00;97.80;;;;;;5048722;28;20115;-70
2023/05/29 10:10:17;;;;;;;19.80;5.05;;;16.10;97.60;;;;;;5046670;28;20052;-73
2023/05/29 10:12:49;;;;;;;17.25;4.45;;;16.10;97.30;;;;;;5052207;28;20056;-74
2023/05/29 10:15:18;;;;;;;20.30;4.25;;;16.00;96.90;;;;;;5053863;28;20503;-72
2023/05/29 10:17:51;;;;;;;17.50;4.35;;;16.10;96.70;;;;;;5036549;28;20061;-70
2023/05/29 10:20:19;;;;;;;13.38;3.90;;;16.00;96.10;;;;;;5057266;28;20380;-74
2023/05/29 10:22:51;;;;;;;16.27;4.28;;;16.00;96.20;;;;;;5047084;28;20144;-74
2023/05/29 10:25:21;;;;;;;17.95;4.47;;;16.10;96.00;;;;;;5038104;28;20120;-74
2023/05/29 10:27:48;;;;;;;16.27;4.93;;;16.10;96.10;;;;;;5055051;28;20049;-73
2023/05/29 10:30:51;;;;;;;23.33;4.63;;;16.20;95.90;;;;;;5049902;28;20506;-74
2023/05/29 10:33:44;;;;;;;18.70;3.97;;;16.20;95.80;;;;;;5048892;28;20098;-71
2023/05/29 10:36:16;;;;;;;14.90;4.20;;;16.30;95.70;;;;;;5061508;28;20131;-72
2023/05/29 10:38:45;;;;;;;15.80;4.18;;;16.30;95.30;;;;;;5052420;28;20526;-72
2023/05/29 10:41:30;;;;;;;17.33;4.30;;;16.40;95.40;;;;;;5055237;28;20076;-72
2023/05/29 10:44:02;;;;;;;13.73;4.03;;;16.40;94.60;;;;;;5050969;28;20054;-71
2023/05/29 10:46:44;;;;;;;18.55;4.20;;;16.50;95.20;;;;;;5042421;28;20057;-72
2023/05/29 10:49:20;;;;;;;17.50;4.50;;;16.60;95.30;;;;;;5055467;28;20725;-73
2023/05/29 10:51:51;;;;;;;17.80;3.90;;;16.60;95.30;;;;;;5042843;28;20076;-74
2023/05/29 10:54:21;;;;;;;17.05;4.60;;;16.60;95.00;;;;;;5037548;28;20036;-73
2023/05/29 10:56:58;;;;;;;15.05;3.70;;;16.70;94.90;;;;;;5037651;28;20896;-75
2023/05/29 10:59:28;;;;;;;18.27;4.70;;;16.70;95.00;;;;;;5033703;28;20052;-71
2023/05/29 11:01:55;;;;;;;16.80;4.10;;;16.80;95.40;;;;;;5047352;28;20049;-71
2023/05/29 11:04:20;;;;;;;15.50;4.10;;;17.00;95.20;;;;;;5057461;28;20056;-70
2023/05/29 11:06:47;;;;;;;14.38;3.53;;;17.00;94.60;;;;;;5040519;28;20075;-74
2023/05/29 11:09:26;;;;;;;15.63;4.45;;;17.10;94.40;;;;;;5053811;28;20689;-73
2023/05/29 11:12:11;;;;;;;15.93;3.90;;;17.20;94.50;;;;;;5049699;28;20056;-72
2023/05/29 11:14:49;;;;;;;13.27;3.67;;;17.30;94.50;;;;;;5050042;28;20098;-76
2023/05/29 11:17:47;;;;;;;17.35;4.38;;;17.40;93.90;;;;;;5069019;28;20047;-75
2023/05/29 11:20:36;;;;;;;17.08;4.22;;;17.40;93.10;;;;;;4999210;28;20060;-75
2023/05/29 11:23:07;;;;;;;14.48;4.20;;;17.40;92.90;;;;;;5038716;28;20119;-73
2023/05/29 11:25:35;;;;;;;15.80;4.22;;;17.40;93.40;;;;;;5063197;28;20109;-74
2023/05/29 11:28:03;;;;;;;17.02;4.35;;;17.40;92.80;;;;;;5054011;28;20076;-73
2023/05/29 11:30:29;;;;;;;15.57;4.22;;;17.30;92.90;;;;;;5056190;28;20048;-73
2023/05/29 11:33:01;;;;;;;18.20;4.18;;;17.30;92.90;;;;;;5039767;28;20063;-73
2023/05/29 11:35:31;;;;;;;16.13;4.47;;;17.30;92.60;;;;;;5040053;28;20057;-74
2023/05/29 11:37:57;;;;;;;19.73;4.28;;;17.40;93.00;;;;;;5048692;28;20106;-76
2023/05/29 11:40:23;;;;;;;12.53;3.23;;;17.40;93.00;;;;;;5043506;28;20052;-75
2023/05/29 11:42:50;;;;;;;16.15;3.85;;;17.50;92.70;;;;;;5046173;28;20366;-72
2023/05/29 11:45:21;;;;;;;19.38;3.78;;;17.50;92.00;;;;;;5067860;28;20492;-70
2023/05/29 11:48:02;;;;;;;15.57;3.83;;;17.50;91.80;;;;;;5046986;28;20052;-71
2023/05/29 11:50:32;;;;;;;17.55;4.22;;;17.50;91.90;;;;;;5040209;28;20102;-72
2023/05/29 11:52:58;;;;;;;17.17;4.32;;;17.40;91.70;;;;;;5052372;28;20094;-74
2023/05/29 11:55:25;;;;;;;13.43;3.83;;;17.40;91.80;;;;;;5045721;28;20059;-72
2023/05/29 11:57:55;;;;;;;17.33;4.68;;;17.40;91.60;;;;;;5059998;28;20051;-73
2023/05/29 12:00:21;;;;;;;14.07;3.60;;;17.40;91.10;;;;;;5062384;28;20041;-71
2023/05/29 12:02:48;;;;;;;15.83;4.23;;;17.40;91.00;;;;;;5040731;28;20709;-73
2023/05/29 12:05:15;;;;;;;14.15;4.22;;;17.40;91.50;;;;;;5042205;28;20140;-70
2023/05/29 12:07:50;;;;;;;15.15;3.83;;;17.40;91.20;;;;;;5048580;28;20040;-70
2023/05/29 12:10:17;;;;;;;12.13;3.55;;;17.40;91.60;;;;;;5035905;28;20052;-73
2023/05/29 12:12:53;;;;;;;;;;;17.40;91.30;;;;;;5041130;28;20122;-74
2023/05/29 12:15:19;;;;;;;14.40;4.20;;;17.40;90.90;;;;;;5059810;28;19931;-70
2023/05/29 12:17:46;;;;;;;14.00;3.58;;;17.50;91.50;;;;;;5067689;28;20298;-70
2023/05/29 12:20:13;;;;;;;14.15;3.88;;;17.60;90.70;;;;;;5047385;28;20178;-69
2023/05/29 12:22:43;;;;;;;13.35;3.85;;;17.60;89.90;;;;;;5042768;28;20614;-69
2023/05/29 12:25:14;;;;;;;13.45;3.65;;;17.70;89.90;;;;;;5049878;28;20048;-70
2023/05/29 12:27:42;;;;;;;16.83;3.95;;;17.70;90.20;;;;;;5046380;28;20055;-70
2023/05/29 12:30:17;;;;;;;15.05;4.10;;;17.80;90.20;;;;;;5034623;28;20040;-70
2023/05/29 12:32:46;;;;;;;14.63;3.75;;;17.90;89.80;;;;;;5043936;28;22076;-71
2023/05/29 12:35:17;;;;;;;14.60;3.78;;;17.90;90.30;;;;;;5045703;28;20052;-70
2023/05/29 12:38:08;;;;;;;14.05;3.47;;;17.90;90.20;;;;;;5056331;28;21104;-71
2023/05/29 12:40:34;;;;;;;14.52;3.83;;;17.80;89.70;;;;;;5061042;28;20053;-72